sensor_id;sensor_type;location;lat;lon;timestamp;P1;durP1;ratioP1;P2;durP2;ratioP2
68505;SDS011;55509;50.680;17.942;2022-09-17T00:02:02;3.90;;;3.00;;
68505;SDS011;55509;50.680;17.942;2022-09-17T00:05:08;3.60;;;3.30;;
68505;SDS011;55509;50.680;17.942;2022-09-17T00:08:18;6.30;;;3.40;;
68505;SDS011;55509;50.680;17.942;2022-09-17T00:11:22;9.10;;;4.40;;
68505;SDS011;55509;50.680;17.942;2022-09-17T00:14:35;3.60;;;3.20;;
68505;SDS011;55509;50.680;17.942;2022-09-17T00:17:40;3.20;;;2.90;;
68505;SDS011;55509;50.680;17.942;2022-09-17T00:20:51;4.30;;;3.80;;
68505;SDS011;55509;50.680;17.942;2022-09-17T00:23:56;5.40;;;4.20;;
68505;SDS011;55509;50.680;17.942;2022-09-17T00:27:04;5.30;;;3.60;;
68505;SDS011;55509;50.680;17.942;2022-09-17T00:30:09;5.20;;;4.60;;
68505;SDS011;55509;50.680;17.942;2022-09-17T00:33:22;4.40;;;4.00;;
68505;SDS011;55509;50.680;17.942;2022-09-17T00:36:40;7.50;;;4.30;;
68505;SDS011;55509;50.680;17.942;2022-09-17T00:39:44;5.80;;;3.30;;
68505;SDS011;55509;50.680;17.942;2022-09-17T00:42:49;6.90;;;4.20;;
68505;SDS011;55509;50.680;17.942;2022-09-17T00:45:54;7.00;;;4.40;;
68505;SDS011;55509;50.680;17.942;2022-09-17T00:52:25;5.80;;;4.10;;
68505;SDS011;55509;50.680;17.942;2022-09-17T00:55:35;5.20;;;4.60;;
68505;SDS011;55509;50.680;17.942;2022-09-17T00:58:45;3.90;;;3.60;;
68505;SDS011;55509;50.680;17.942;2022-09-17T01:01:50;4.50;;;3.80;;
68505;SDS011;55509;50.680;17.942;2022-09-17T01:05:03;7.80;;;4.70;;
68505;SDS011;55509;50.680;17.942;2022-09-17T01:14:58;5.40;;;4.90;;
68505;SDS011;55509;50.680;17.942;2022-09-17T01:21:44;5.00;;;4.40;;
68505;SDS011;55509;50.680;17.942;2022-09-17T01:28:45;4.70;;;4.30;;
68505;SDS011;55509;50.680;17.942;2022-09-17T01:35:31;4.30;;;3.90;;
68505;SDS011;55509;50.680;17.942;2022-09-17T01:39:15;5.50;;;4.50;;
68505;SDS011;55509;50.680;17.942;2022-09-17T01:45:51;5.60;;;4.50;;
68505;SDS011;55509;50.680;17.942;2022-09-17T01:52:23;5.80;;;4.80;;
68505;SDS011;55509;50.680;17.942;2022-09-17T01:55:48;7.00;;;4.40;;
68505;SDS011;55509;50.680;17.942;2022-09-17T01:59:08;4.90;;;4.50;;
68505;SDS011;55509;50.680;17.942;2022-09-17T02:02:38;4.80;;;4.20;;
68505;SDS011;55509;50.680;17.942;2022-09-17T02:05:50;6.30;;;4.30;;
68505;SDS011;55509;50.680;17.942;2022-09-17T02:09:20;4.80;;;4.20;;
68505;SDS011;55509;50.680;17.942;2022-09-17T02:12:27;3.90;;;3.60;;
68505;SDS011;55509;50.680;17.942;2022-09-17T02:15:56;6.60;;;4.00;;
68505;SDS011;55509;50.680;17.942;2022-09-17T02:22:42;4.60;;;4.10;;
68505;SDS011;55509;50.680;17.942;2022-09-17T02:25:56;3.90;;;3.60;;
68505;SDS011;55509;50.680;17.942;2022-09-17T02:29:12;4.10;;;3.70;;
68505;SDS011;55509;50.680;17.942;2022-09-17T02:32:32;5.50;;;4.90;;
68505;SDS011;55509;50.680;17.942;2022-09-17T02:35:48;6.00;;;4.30;;
68505;SDS011;55509;50.680;17.942;2022-09-17T02:39:00;3.90;;;3.40;;
68505;SDS011;55509;50.680;17.942;2022-09-17T02:42:29;4.30;;;3.60;;
68505;SDS011;55509;50.680;17.942;2022-09-17T03:00:25;5.30;;;4.40;;
68505;SDS011;55509;50.680;17.942;2022-09-17T03:03:42;7.40;;;3.90;;
68505;SDS011;55509;50.680;17.942;2022-09-17T03:10:43;6.70;;;3.60;;
68505;SDS011;55509;50.680;17.942;2022-09-17T03:14:06;3.90;;;3.60;;
68505;SDS011;55509;50.680;17.942;2022-09-17T03:17:15;4.30;;;3.10;;
68505;SDS011;55509;50.680;17.942;2022-09-17T03:20:17;3.90;;;3.60;;
68505;SDS011;55509;50.680;17.942;2022-09-17T03:27:08;7.10;;;3.20;;
68505;SDS011;55509;50.680;17.942;2022-09-17T03:30:12;4.10;;;3.10;;
68505;SDS011;55509;50.680;17.942;2022-09-17T03:36:47;9.60;;;3.30;;
68505;SDS011;55509;50.680;17.942;2022-09-17T03:39:57;4.00;;;3.60;;
68505;SDS011;55509;50.680;17.942;2022-09-17T03:43:02;4.80;;;4.30;;
68505;SDS011;55509;50.680;17.942;2022-09-17T03:46:13;4.40;;;3.10;;
68505;SDS011;55509;50.680;17.942;2022-09-17T03:49:21;7.70;;;3.80;;
68505;SDS011;55509;50.680;17.942;2022-09-17T03:52:29;6.40;;;3.70;;
68505;SDS011;55509;50.680;17.942;2022-09-17T03:55:31;3.40;;;3.10;;
68505;SDS011;55509;50.680;17.942;2022-09-17T03:58:42;4.70;;;4.10;;
68505;SDS011;55509;50.680;17.942;2022-09-17T04:01:47;5.00;;;3.70;;
68505;SDS011;55509;50.680;17.942;2022-09-17T04:04:49;5.60;;;4.20;;
68505;SDS011;55509;50.680;17.942;2022-09-17T04:07:59;3.70;;;3.40;;
68505;SDS011;55509;50.680;17.942;2022-09-17T04:11:10;4.50;;;3.80;;
68505;SDS011;55509;50.680;17.942;2022-09-17T04:14:18;5.40;;;3.50;;
68505;SDS011;55509;50.680;17.942;2022-09-17T04:17:22;4.60;;;3.60;;
68505;SDS011;55509;50.680;17.942;2022-09-17T04:20:30;5.20;;;4.20;;
68505;SDS011;55509;50.680;17.942;2022-09-17T04:23:32;6.30;;;3.70;;
68505;SDS011;55509;50.680;17.942;2022-09-17T04:26:37;8.70;;;3.00;;
68505;SDS011;55509;50.680;17.942;2022-09-17T04:29:50;5.20;;;3.90;;
68505;SDS011;55509;50.680;17.942;2022-09-17T04:33:01;3.80;;;3.50;;
68505;SDS011;55509;50.680;17.942;2022-09-17T04:36:17;3.90;;;3.50;;
68505;SDS011;55509;50.680;17.942;2022-09-17T04:39:28;4.20;;;3.60;;
68505;SDS011;55509;50.680;17.942;2022-09-17T04:42:29;5.50;;;4.10;;
68505;SDS011;55509;50.680;17.942;2022-09-17T04:45:32;4.20;;;3.80;;
68505;SDS011;55509;50.680;17.942;2022-09-17T04:48:33;3.20;;;2.80;;
68505;SDS011;55509;50.680;17.942;2022-09-17T04:51:38;7.20;;;4.00;;
68505;SDS011;55509;50.680;17.942;2022-09-17T04:54:40;6.60;;;4.70;;
68505;SDS011;55509;50.680;17.942;2022-09-17T04:57:56;5.60;;;3.70;;
68505;SDS011;55509;50.680;17.942;2022-09-17T05:00:58;8.50;;;5.40;;
68505;SDS011;55509;50.680;17.942;2022-09-17T05:04:00;5.70;;;3.40;;
68505;SDS011;55509;50.680;17.942;2022-09-17T05:07:07;3.30;;;3.00;;
68505;SDS011;55509;50.680;17.942;2022-09-17T05:10:16;3.60;;;3.20;;
68505;SDS011;55509;50.680;17.942;2022-09-17T05:13:21;4.10;;;3.70;;
68505;SDS011;55509;50.680;17.942;2022-09-17T05:16:23;3.90;;;3.50;;
68505;SDS011;55509;50.680;17.942;2022-09-17T05:19:25;9.20;;;4.20;;
68505;SDS011;55509;50.680;17.942;2022-09-17T05:22:39;3.00;;;2.60;;
68505;SDS011;55509;50.680;17.942;2022-09-17T05:25:45;5.60;;;3.60;;
68505;SDS011;55509;50.680;17.942;2022-09-17T05:28:50;4.20;;;3.80;;
68505;SDS011;55509;50.680;17.942;2022-09-17T05:31:52;4.00;;;3.30;;
68505;SDS011;55509;50.680;17.942;2022-09-17T05:34:57;6.70;;;4.40;;
68505;SDS011;55509;50.680;17.942;2022-09-17T05:41:05;7.40;;;3.80;;
68505;SDS011;55509;50.680;17.942;2022-09-17T05:44:10;5.00;;;3.00;;
68505;SDS011;55509;50.680;17.942;2022-09-17T05:47:23;5.50;;;2.70;;
68505;SDS011;55509;50.680;17.942;2022-09-17T05:50:28;4.90;;;4.20;;
68505;SDS011;55509;50.680;17.942;2022-09-17T05:53:32;5.30;;;3.60;;
68505;SDS011;55509;50.680;17.942;2022-09-17T05:56:34;3.80;;;3.50;;
68505;SDS011;55509;50.680;17.942;2022-09-17T05:59:47;7.00;;;4.10;;
68505;SDS011;55509;50.680;17.942;2022-09-17T06:02:56;5.80;;;2.90;;
68505;SDS011;55509;50.680;17.942;2022-09-17T06:05:59;3.20;;;2.70;;
68505;SDS011;55509;50.680;17.942;2022-09-17T06:09:04;5.80;;;3.70;;
68505;SDS011;55509;50.680;17.942;2022-09-17T06:12:09;7.30;;;4.40;;
68505;SDS011;55509;50.680;17.942;2022-09-17T06:15:22;5.10;;;4.00;;
68505;SDS011;55509;50.680;17.942;2022-09-17T06:18:28;4.30;;;3.90;;
68505;SDS011;55509;50.680;17.942;2022-09-17T06:21:38;5.10;;;3.40;;
68505;SDS011;55509;50.680;17.942;2022-09-17T06:24:40;5.70;;;2.90;;
68505;SDS011;55509;50.680;17.942;2022-09-17T06:27:54;5.00;;;3.60;;
68505;SDS011;55509;50.680;17.942;2022-09-17T06:31:04;4.30;;;3.80;;
68505;SDS011;55509;50.680;17.942;2022-09-17T06:34:12;5.70;;;3.50;;
68505;SDS011;55509;50.680;17.942;2022-09-17T06:37:17;6.40;;;4.10;;
68505;SDS011;55509;50.680;17.942;2022-09-17T06:40:18;6.10;;;4.90;;
68505;SDS011;55509;50.680;17.942;2022-09-17T06:43:28;4.20;;;2.70;;
68505;SDS011;55509;50.680;17.942;2022-09-17T06:46:36;5.10;;;2.60;;
68505;SDS011;55509;50.680;17.942;2022-09-17T06:49:41;5.70;;;3.70;;
68505;SDS011;55509;50.680;17.942;2022-09-17T06:52:51;5.20;;;4.10;;
68505;SDS011;55509;50.680;17.942;2022-09-17T06:55:58;5.20;;;4.10;;
68505;SDS011;55509;50.680;17.942;2022-09-17T06:59:01;5.30;;;4.00;;
68505;SDS011;55509;50.680;17.942;2022-09-17T07:02:05;4.90;;;4.40;;
68505;SDS011;55509;50.680;17.942;2022-09-17T07:05:09;4.20;;;3.50;;
68505;SDS011;55509;50.680;17.942;2022-09-17T07:08:19;4.40;;;2.30;;
68505;SDS011;55509;50.680;17.942;2022-09-17T07:11:38;4.30;;;2.80;;
68505;SDS011;55509;50.680;17.942;2022-09-17T07:14:45;7.80;;;4.30;;
68505;SDS011;55509;50.680;17.942;2022-09-17T07:17:53;5.10;;;3.80;;
68505;SDS011;55509;50.680;17.942;2022-09-17T07:20:56;6.50;;;4.20;;
68505;SDS011;55509;50.680;17.942;2022-09-17T07:24:02;4.90;;;3.90;;
68505;SDS011;55509;50.680;17.942;2022-09-17T07:27:04;4.80;;;2.80;;
68505;SDS011;55509;50.680;17.942;2022-09-17T07:30:20;4.20;;;2.00;;
68505;SDS011;55509;50.680;17.942;2022-09-17T07:33:25;3.30;;;3.10;;
68505;SDS011;55509;50.680;17.942;2022-09-17T07:36:28;5.80;;;4.00;;
68505;SDS011;55509;50.680;17.942;2022-09-17T07:39:30;6.20;;;2.90;;
68505;SDS011;55509;50.680;17.942;2022-09-17T07:42:32;5.00;;;3.40;;
68505;SDS011;55509;50.680;17.942;2022-09-17T07:45:36;5.20;;;3.80;;
68505;SDS011;55509;50.680;17.942;2022-09-17T07:48:41;4.20;;;3.50;;
68505;SDS011;55509;50.680;17.942;2022-09-17T07:51:46;4.00;;;3.70;;
68505;SDS011;55509;50.680;17.942;2022-09-17T07:54:51;5.10;;;3.00;;
68505;SDS011;55509;50.680;17.942;2022-09-17T07:57:56;4.50;;;2.80;;
68505;SDS011;55509;50.680;17.942;2022-09-17T08:01:03;2.80;;;2.60;;
68505;SDS011;55509;50.680;17.942;2022-09-17T08:04:07;4.70;;;3.40;;
68505;SDS011;55509;50.680;17.942;2022-09-17T08:07:12;6.80;;;3.60;;
68505;SDS011;55509;50.680;17.942;2022-09-17T08:10:14;6.50;;;3.10;;
68505;SDS011;55509;50.680;17.942;2022-09-17T08:13:16;5.00;;;2.60;;
68505;SDS011;55509;50.680;17.942;2022-09-17T08:16:18;5.30;;;3.80;;
68505;SDS011;55509;50.680;17.942;2022-09-17T08:19:24;6.00;;;3.50;;
68505;SDS011;55509;50.680;17.942;2022-09-17T08:22:26;5.10;;;3.40;;
68505;SDS011;55509;50.680;17.942;2022-09-17T08:25:30;13.10;;;3.50;;
68505;SDS011;55509;50.680;17.942;2022-09-17T08:28:32;3.60;;;3.30;;
68505;SDS011;55509;50.680;17.942;2022-09-17T08:31:36;4.50;;;3.80;;
68505;SDS011;55509;50.680;17.942;2022-09-17T08:34:38;4.00;;;3.60;;
68505;SDS011;55509;50.680;17.942;2022-09-17T08:37:43;3.80;;;3.50;;
68505;SDS011;55509;50.680;17.942;2022-09-17T08:44:22;12.10;;;4.30;;
68505;SDS011;55509;50.680;17.942;2022-09-17T08:47:27;3.60;;;2.90;;
68505;SDS011;55509;50.680;17.942;2022-09-17T08:50:42;3.30;;;2.30;;
68505;SDS011;55509;50.680;17.942;2022-09-17T08:54:32;5.00;;;2.80;;
68505;SDS011;55509;50.680;17.942;2022-09-17T09:00:49;6.50;;;3.10;;
68505;SDS011;55509;50.680;17.942;2022-09-17T09:07:26;4.00;;;3.10;;
68505;SDS011;55509;50.680;17.942;2022-09-17T09:10:44;3.50;;;2.70;;
68505;SDS011;55509;50.680;17.942;2022-09-17T09:14:13;5.70;;;3.50;;
68505;SDS011;55509;50.680;17.942;2022-09-17T09:17:19;6.30;;;3.00;;
68505;SDS011;55509;50.680;17.942;2022-09-17T09:24:32;2.50;;;1.60;;
68505;SDS011;55509;50.680;17.942;2022-09-17T09:27:49;4.00;;;2.60;;
68505;SDS011;55509;50.680;17.942;2022-09-17T09:31:02;4.70;;;2.80;;
68505;SDS011;55509;50.680;17.942;2022-09-17T09:34:16;6.00;;;3.40;;
68505;SDS011;55509;50.680;17.942;2022-09-17T09:37:26;8.10;;;2.40;;
68505;SDS011;55509;50.680;17.942;2022-09-17T09:43:40;3.80;;;3.00;;
68505;SDS011;55509;50.680;17.942;2022-09-17T09:46:46;3.90;;;3.00;;
68505;SDS011;55509;50.680;17.942;2022-09-17T09:50:24;4.40;;;2.90;;
68505;SDS011;55509;50.680;17.942;2022-09-17T09:57:34;7.70;;;3.20;;
68505;SDS011;55509;50.680;17.942;2022-09-17T10:00:46;6.00;;;2.20;;
68505;SDS011;55509;50.680;17.942;2022-09-17T10:03:49;2.90;;;2.50;;
68505;SDS011;55509;50.680;17.942;2022-09-17T10:06:53;3.00;;;2.70;;
68505;SDS011;55509;50.680;17.942;2022-09-17T10:10:12;5.30;;;3.10;;
68505;SDS011;55509;50.680;17.942;2022-09-17T10:13:16;3.30;;;3.00;;
68505;SDS011;55509;50.680;17.942;2022-09-17T10:16:26;6.30;;;2.80;;
68505;SDS011;55509;50.680;17.942;2022-09-17T10:19:30;4.60;;;3.30;;
68505;SDS011;55509;50.680;17.942;2022-09-17T10:22:34;5.20;;;3.00;;
68505;SDS011;55509;50.680;17.942;2022-09-17T10:25:41;2.80;;;2.60;;
68505;SDS011;55509;50.680;17.942;2022-09-17T10:31:54;3.20;;;2.30;;
68505;SDS011;55509;50.680;17.942;2022-09-17T10:38:27;4.30;;;2.50;;
68505;SDS011;55509;50.680;17.942;2022-09-17T10:41:30;4.60;;;3.30;;
68505;SDS011;55509;50.680;17.942;2022-09-17T10:44:35;3.80;;;2.20;;
68505;SDS011;55509;50.680;17.942;2022-09-17T10:47:51;2.50;;;2.20;;
68505;SDS011;55509;50.680;17.942;2022-09-17T10:50:54;3.80;;;2.80;;
68505;SDS011;55509;50.680;17.942;2022-09-17T10:57:51;8.90;;;2.70;;
68505;SDS011;55509;50.680;17.942;2022-09-17T11:08:11;5.70;;;2.40;;
68505;SDS011;55509;50.680;17.942;2022-09-17T11:11:36;2.40;;;2.20;;
68505;SDS011;55509;50.680;17.942;2022-09-17T11:21:25;3.10;;;2.40;;
68505;SDS011;55509;50.680;17.942;2022-09-17T11:28:17;6.00;;;2.20;;
68505;SDS011;55509;50.680;17.942;2022-09-17T11:35:10;4.40;;;3.00;;
68505;SDS011;55509;50.680;17.942;2022-09-17T11:38:41;3.90;;;2.40;;
68505;SDS011;55509;50.680;17.942;2022-09-17T11:41:56;3.00;;;2.70;;
68505;SDS011;55509;50.680;17.942;2022-09-17T11:45:03;3.00;;;2.60;;
68505;SDS011;55509;50.680;17.942;2022-09-17T11:48:19;5.00;;;2.40;;
68505;SDS011;55509;50.680;17.942;2022-09-17T11:51:45;5.30;;;2.90;;
68505;SDS011;55509;50.680;17.942;2022-09-17T12:01:44;4.20;;;3.30;;
68505;SDS011;55509;50.680;17.942;2022-09-17T12:11:34;3.50;;;2.80;;
68505;SDS011;55509;50.680;17.942;2022-09-17T12:15:01;3.10;;;2.60;;
68505;SDS011;55509;50.680;17.942;2022-09-17T12:21:39;3.80;;;3.50;;
68505;SDS011;55509;50.680;17.942;2022-09-17T12:24:47;4.80;;;2.60;;
68505;SDS011;55509;50.680;17.942;2022-09-17T12:27:55;8.30;;;2.70;;
68505;SDS011;55509;50.680;17.942;2022-09-17T12:31:05;3.30;;;3.00;;
68505;SDS011;55509;50.680;17.942;2022-09-17T12:34:25;9.10;;;4.40;;
68505;SDS011;55509;50.680;17.942;2022-09-17T12:44:43;4.40;;;3.90;;
68505;SDS011;55509;50.680;17.942;2022-09-17T12:48:23;3.90;;;3.60;;
68505;SDS011;55509;50.680;17.942;2022-09-17T12:51:40;6.20;;;3.60;;
68505;SDS011;55509;50.680;17.942;2022-09-17T12:58:35;6.20;;;3.50;;
68505;SDS011;55509;50.680;17.942;2022-09-17T13:02:36;4.40;;;4.10;;
68505;SDS011;55509;50.680;17.942;2022-09-17T13:12:24;3.80;;;3.50;;
68505;SDS011;55509;50.680;17.942;2022-09-17T13:22:30;3.10;;;2.90;;
68505;SDS011;55509;50.680;17.942;2022-09-17T13:25:49;3.40;;;3.20;;
68505;SDS011;55509;50.680;17.942;2022-09-17T13:28:57;5.40;;;3.30;;
68505;SDS011;55509;50.680;17.942;2022-09-17T13:31:59;4.40;;;3.50;;
68505;SDS011;55509;50.680;17.942;2022-09-17T13:38:14;2.80;;;2.60;;
68505;SDS011;55509;50.680;17.942;2022-09-17T13:41:23;6.20;;;3.60;;
68505;SDS011;55509;50.680;17.942;2022-09-17T13:44:30;2.80;;;2.70;;
68505;SDS011;55509;50.680;17.942;2022-09-17T13:47:46;5.10;;;3.10;;
68505;SDS011;55509;50.680;17.942;2022-09-17T13:50:55;3.50;;;3.20;;
68505;SDS011;55509;50.680;17.942;2022-09-17T13:53:58;4.40;;;3.10;;
68505;SDS011;55509;50.680;17.942;2022-09-17T13:57:04;3.50;;;3.00;;
68505;SDS011;55509;50.680;17.942;2022-09-17T14:00:27;7.10;;;3.00;;
68505;SDS011;55509;50.680;17.942;2022-09-17T14:03:52;4.00;;;2.50;;
68505;SDS011;55509;50.680;17.942;2022-09-17T14:06:57;3.40;;;3.10;;
68505;SDS011;55509;50.680;17.942;2022-09-17T14:19:48;2.50;;;2.40;;
68505;SDS011;55509;50.680;17.942;2022-09-17T14:22:56;2.90;;;2.10;;
68505;SDS011;55509;50.680;17.942;2022-09-17T14:26:01;3.50;;;2.60;;
68505;SDS011;55509;50.680;17.942;2022-09-17T14:32:17;2.10;;;2.00;;
68505;SDS011;55509;50.680;17.942;2022-09-17T14:35:44;5.20;;;2.80;;
68505;SDS011;55509;50.680;17.942;2022-09-17T14:38:49;4.90;;;2.40;;
68505;SDS011;55509;50.680;17.942;2022-09-17T14:41:53;2.00;;;1.90;;
68505;SDS011;55509;50.680;17.942;2022-09-17T14:44:59;3.80;;;2.30;;
68505;SDS011;55509;50.680;17.942;2022-09-17T14:48:18;2.40;;;2.20;;
68505;SDS011;55509;50.680;17.942;2022-09-17T14:51:32;5.20;;;2.70;;
68505;SDS011;55509;50.680;17.942;2022-09-17T14:54:40;1.30;;;1.20;;
68505;SDS011;55509;50.680;17.942;2022-09-17T14:57:52;2.60;;;1.40;;
68505;SDS011;55509;50.680;17.942;2022-09-17T15:01:05;0.90;;;0.30;;
68505;SDS011;55509;50.680;17.942;2022-09-17T15:04:29;2.30;;;0.90;;
68505;SDS011;55509;50.680;17.942;2022-09-17T15:07:31;0.90;;;0.40;;
68505;SDS011;55509;50.680;17.942;2022-09-17T15:10:44;2.80;;;1.00;;
68505;SDS011;55509;50.680;17.942;2022-09-17T15:14:09;1.70;;;1.40;;
68505;SDS011;55509;50.680;17.942;2022-09-17T15:17:25;1.90;;;1.40;;
68505;SDS011;55509;50.680;17.942;2022-09-17T15:20:36;1.30;;;1.10;;
68505;SDS011;55509;50.680;17.942;2022-09-17T15:23:41;3.60;;;1.40;;
68505;SDS011;55509;50.680;17.942;2022-09-17T15:26:47;2.40;;;1.10;;
68505;SDS011;55509;50.680;17.942;2022-09-17T15:30:03;1.90;;;1.00;;
68505;SDS011;55509;50.680;17.942;2022-09-17T15:33:11;4.50;;;1.10;;
68505;SDS011;55509;50.680;17.942;2022-09-17T15:36:23;1.20;;;0.70;;
68505;SDS011;55509;50.680;17.942;2022-09-17T15:39:28;1.20;;;1.00;;
68505;SDS011;55509;50.680;17.942;2022-09-17T15:42:32;0.90;;;0.90;;
68505;SDS011;55509;50.680;17.942;2022-09-17T15:45:34;0.80;;;0.80;;
68505;SDS011;55509;50.680;17.942;2022-09-17T15:48:40;2.10;;;1.50;;
68505;SDS011;55509;50.680;17.942;2022-09-17T15:51:41;1.30;;;1.00;;
68505;SDS011;55509;50.680;17.942;2022-09-17T15:54:43;2.20;;;1.40;;
68505;SDS011;55509;50.680;17.942;2022-09-17T15:57:45;1.50;;;1.30;;
68505;SDS011;55509;50.680;17.942;2022-09-17T16:00:47;1.50;;;1.10;;
68505;SDS011;55509;50.680;17.942;2022-09-17T16:04:16;1.30;;;1.20;;
68505;SDS011;55509;50.680;17.942;2022-09-17T16:07:28;3.20;;;1.50;;
68505;SDS011;55509;50.680;17.942;2022-09-17T16:10:33;3.10;;;1.50;;
68505;SDS011;55509;50.680;17.942;2022-09-17T16:13:38;2.00;;;1.90;;
68505;SDS011;55509;50.680;17.942;2022-09-17T16:16:42;1.60;;;1.50;;
68505;SDS011;55509;50.680;17.942;2022-09-17T16:19:48;2.00;;;1.90;;
68505;SDS011;55509;50.680;17.942;2022-09-17T16:23:03;3.20;;;2.40;;
68505;SDS011;55509;50.680;17.942;2022-09-17T16:26:05;2.70;;;2.40;;
68505;SDS011;55509;50.680;17.942;2022-09-17T16:29:11;2.60;;;2.40;;
68505;SDS011;55509;50.680;17.942;2022-09-17T16:32:19;4.00;;;3.40;;
68505;SDS011;55509;50.680;17.942;2022-09-17T16:35:24;2.60;;;2.40;;
68505;SDS011;55509;50.680;17.942;2022-09-17T16:38:31;2.90;;;2.30;;
68505;SDS011;55509;50.680;17.942;2022-09-17T16:41:34;4.10;;;3.50;;
68505;SDS011;55509;50.680;17.942;2022-09-17T16:44:36;3.40;;;2.70;;
68505;SDS011;55509;50.680;17.942;2022-09-17T16:47:38;4.00;;;3.60;;
68505;SDS011;55509;50.680;17.942;2022-09-17T16:50:43;3.10;;;2.80;;
68505;SDS011;55509;50.680;17.942;2022-09-17T16:53:48;4.20;;;3.80;;
68505;SDS011;55509;50.680;17.942;2022-09-17T16:56:52;4.00;;;3.60;;
68505;SDS011;55509;50.680;17.942;2022-09-17T16:59:54;4.80;;;3.80;;
68505;SDS011;55509;50.680;17.942;2022-09-17T17:02:59;4.90;;;4.40;;
68505;SDS011;55509;50.680;17.942;2022-09-17T17:06:01;7.80;;;3.90;;
68505;SDS011;55509;50.680;17.942;2022-09-17T17:09:03;5.30;;;3.50;;
68505;SDS011;55509;50.680;17.942;2022-09-17T17:12:05;5.50;;;3.40;;
68505;SDS011;55509;50.680;17.942;2022-09-17T17:15:08;6.30;;;4.40;;
68505;SDS011;55509;50.680;17.942;2022-09-17T17:18:10;7.20;;;4.10;;
68505;SDS011;55509;50.680;17.942;2022-09-17T17:21:13;4.70;;;3.40;;
68505;SDS011;55509;50.680;17.942;2022-09-17T17:24:17;3.80;;;2.50;;
68505;SDS011;55509;50.680;17.942;2022-09-17T17:27:22;3.80;;;2.50;;
68505;SDS011;55509;50.680;17.942;2022-09-17T17:30:24;3.20;;;2.90;;
68505;SDS011;55509;50.680;17.942;2022-09-17T17:33:26;3.70;;;3.20;;
68505;SDS011;55509;50.680;17.942;2022-09-17T17:36:30;7.70;;;3.30;;
68505;SDS011;55509;50.680;17.942;2022-09-17T17:39:32;7.50;;;3.40;;
68505;SDS011;55509;50.680;17.942;2022-09-17T17:42:37;2.20;;;1.50;;
68505;SDS011;55509;50.680;17.942;2022-09-17T17:45:43;4.90;;;3.10;;
68505;SDS011;55509;50.680;17.942;2022-09-17T17:48:45;5.30;;;3.80;;
68505;SDS011;55509;50.680;17.942;2022-09-17T17:51:48;3.10;;;2.90;;
68505;SDS011;55509;50.680;17.942;2022-09-17T17:54:50;3.00;;;2.80;;
68505;SDS011;55509;50.680;17.942;2022-09-17T17:57:57;2.90;;;1.80;;
68505;SDS011;55509;50.680;17.942;2022-09-17T18:01:08;3.60;;;1.00;;
68505;SDS011;55509;50.680;17.942;2022-09-17T18:04:15;1.20;;;0.80;;
68505;SDS011;55509;50.680;17.942;2022-09-17T18:07:20;1.80;;;0.80;;
68505;SDS011;55509;50.680;17.942;2022-09-17T18:10:25;2.00;;;0.80;;
68505;SDS011;55509;50.680;17.942;2022-09-17T18:13:28;2.60;;;1.30;;
68505;SDS011;55509;50.680;17.942;2022-09-17T18:16:32;1.30;;;1.20;;
68505;SDS011;55509;50.680;17.942;2022-09-17T18:19:35;2.50;;;1.50;;
68505;SDS011;55509;50.680;17.942;2022-09-17T18:22:42;9.10;;;2.30;;
68505;SDS011;55509;50.680;17.942;2022-09-17T18:25:51;2.30;;;2.10;;
68505;SDS011;55509;50.680;17.942;2022-09-17T18:29:02;3.20;;;2.30;;
68505;SDS011;55509;50.680;17.942;2022-09-17T18:32:07;5.80;;;2.60;;
68505;SDS011;55509;50.680;17.942;2022-09-17T18:35:09;4.60;;;2.10;;
68505;SDS011;55509;50.680;17.942;2022-09-17T18:38:20;2.40;;;1.10;;
68505;SDS011;55509;50.680;17.942;2022-09-17T18:41:22;2.80;;;1.30;;
68505;SDS011;55509;50.680;17.942;2022-09-17T18:47:38;2.50;;;2.30;;
68505;SDS011;55509;50.680;17.942;2022-09-17T18:50:53;7.20;;;4.40;;
68505;SDS011;55509;50.680;17.942;2022-09-17T18:53:59;3.50;;;3.20;;
68505;SDS011;55509;50.680;17.942;2022-09-17T18:57:13;4.50;;;3.20;;
68505;SDS011;55509;50.680;17.942;2022-09-17T19:00:23;3.50;;;3.20;;
68505;SDS011;55509;50.680;17.942;2022-09-17T19:03:29;4.70;;;3.40;;
68505;SDS011;55509;50.680;17.942;2022-09-17T19:06:35;5.80;;;5.30;;
68505;SDS011;55509;50.680;17.942;2022-09-17T19:09:41;9.20;;;8.30;;
68505;SDS011;55509;50.680;17.942;2022-09-17T19:12:56;7.50;;;6.40;;
68505;SDS011;55509;50.680;17.942;2022-09-17T19:16:18;7.20;;;4.80;;
68505;SDS011;55509;50.680;17.942;2022-09-17T19:19:22;5.80;;;2.70;;
68505;SDS011;55509;50.680;17.942;2022-09-17T19:25:42;4.20;;;1.00;;
68505;SDS011;55509;50.680;17.942;2022-09-17T19:29:05;5.60;;;1.90;;
68505;SDS011;55509;50.680;17.942;2022-09-17T19:32:07;2.00;;;1.20;;
68505;SDS011;55509;50.680;17.942;2022-09-17T19:35:15;7.90;;;4.40;;
68505;SDS011;55509;50.680;17.942;2022-09-17T19:38:20;4.90;;;1.80;;
68505;SDS011;55509;50.680;17.942;2022-09-17T19:41:35;5.00;;;3.00;;
68505;SDS011;55509;50.680;17.942;2022-09-17T19:44:44;10.00;;;3.40;;
68505;SDS011;55509;50.680;17.942;2022-09-17T19:51:04;9.70;;;2.90;;
68505;SDS011;55509;50.680;17.942;2022-09-17T19:54:10;7.90;;;3.60;;
68505;SDS011;55509;50.680;17.942;2022-09-17T19:57:12;14.80;;;2.90;;
68505;SDS011;55509;50.680;17.942;2022-09-17T20:00:14;4.70;;;2.60;;
68505;SDS011;55509;50.680;17.942;2022-09-17T20:03:19;7.70;;;2.40;;
68505;SDS011;55509;50.680;17.942;2022-09-17T20:06:24;6.60;;;2.30;;
68505;SDS011;55509;50.680;17.942;2022-09-17T20:09:29;5.50;;;2.40;;
68505;SDS011;55509;50.680;17.942;2022-09-17T20:12:48;6.30;;;2.50;;
68505;SDS011;55509;50.680;17.942;2022-09-17T20:15:59;6.50;;;3.60;;
68505;SDS011;55509;50.680;17.942;2022-09-17T20:19:09;11.20;;;3.40;;
68505;SDS011;55509;50.680;17.942;2022-09-17T20:22:15;10.60;;;4.40;;
68505;SDS011;55509;50.680;17.942;2022-09-17T20:25:17;11.50;;;6.30;;
68505;SDS011;55509;50.680;17.942;2022-09-17T20:28:22;5.20;;;3.40;;
68505;SDS011;55509;50.680;17.942;2022-09-17T20:31:25;7.10;;;3.80;;
68505;SDS011;55509;50.680;17.942;2022-09-17T20:34:28;7.70;;;4.00;;
68505;SDS011;55509;50.680;17.942;2022-09-17T20:37:33;3.80;;;2.70;;
68505;SDS011;55509;50.680;17.942;2022-09-17T20:40:35;5.80;;;2.30;;
68505;SDS011;55509;50.680;17.942;2022-09-17T20:43:37;13.30;;;3.50;;
68505;SDS011;55509;50.680;17.942;2022-09-17T20:46:41;5.70;;;2.70;;
68505;SDS011;55509;50.680;17.942;2022-09-17T20:49:46;7.00;;;4.10;;
68505;SDS011;55509;50.680;17.942;2022-09-17T20:52:48;8.30;;;4.70;;
68505;SDS011;55509;50.680;17.942;2022-09-17T20:55:56;15.90;;;5.60;;
68505;SDS011;55509;50.680;17.942;2022-09-17T20:59:04;6.70;;;4.30;;
68505;SDS011;55509;50.680;17.942;2022-09-17T21:02:19;6.00;;;3.40;;
68505;SDS011;55509;50.680;17.942;2022-09-17T21:05:22;8.20;;;3.50;;
68505;SDS011;55509;50.680;17.942;2022-09-17T21:08:24;21.60;;;4.20;;
68505;SDS011;55509;50.680;17.942;2022-09-17T21:11:29;8.80;;;3.00;;
68505;SDS011;55509;50.680;17.942;2022-09-17T21:14:31;9.30;;;4.00;;
68505;SDS011;55509;50.680;17.942;2022-09-17T21:17:33;10.90;;;4.40;;
68505;SDS011;55509;50.680;17.942;2022-09-17T21:20:45;9.10;;;2.90;;
68505;SDS011;55509;50.680;17.942;2022-09-17T21:23:47;7.10;;;2.60;;
68505;SDS011;55509;50.680;17.942;2022-09-17T21:26:49;11.20;;;3.10;;
68505;SDS011;55509;50.680;17.942;2022-09-17T21:29:53;5.40;;;1.80;;
68505;SDS011;55509;50.680;17.942;2022-09-17T21:33:04;4.80;;;1.80;;
68505;SDS011;55509;50.680;17.942;2022-09-17T21:36:09;5.60;;;2.60;;
68505;SDS011;55509;50.680;17.942;2022-09-17T21:39:18;11.10;;;2.30;;